DLH51A EDDF-LOWS
Flight info
| Callsign | DLH51A |
|---|---|
| Flight time | 0h 41m |
| Altitude | 29000 |
| Route | CINDY8S/18 CINDY Z74 HAREM DCT ASLEP DCT TAKUT DCT DINKU L603 OLETU T702 BADIT BADIT2R |
| Aircraft | A320/M-SDE2E3FGIJ1LORWXYZ/HB1 |
Departure
| Time | 2026-05-06 19:37 |
|---|---|
| Airport | Frankfurt Main Airport (EDDF) |
Arrival
| Time | 2026-05-06 20:18 |
|---|---|
| Airport | Salzburg Airport (LOWS) |
| Time | Latitude | Longitude | Altitude | Speed | Heading |
|---|---|---|---|---|---|
| 2026-05-06 19:07 | 50.04042 | 8.55545 | 358 ft | 0 kts | 160° |
| 2026-05-06 19:30 | 50.04025 | 8.55555 | 355 ft | 7 kts | 160° |
| 2026-05-06 19:30 | 50.03975 | 8.55578 | 349 ft | 8 kts | 181° |
| 2026-05-06 19:31 | 50.03937 | 8.55481 | 357 ft | 14 kts | 250° |
| 2026-05-06 19:31 | 50.03899 | 8.55322 | 352 ft | 17 kts | 250° |
| 2026-05-06 19:31 | 50.03804 | 8.54926 | 355 ft | 22 kts | 249° |
| 2026-05-06 19:32 | 50.03751 | 8.54704 | 350 ft | 22 kts | 249° |
| 2026-05-06 19:32 | 50.03695 | 8.54469 | 343 ft | 24 kts | 250° |
| 2026-05-06 19:32 | 50.03638 | 8.54228 | 343 ft | 23 kts | 249° |
| 2026-05-06 19:32 | 50.03585 | 8.54004 | 350 ft | 22 kts | 249° |
| 2026-05-06 19:33 | 50.03533 | 8.53788 | 338 ft | 21 kts | 249° |
| 2026-05-06 19:33 | 50.03483 | 8.53581 | 338 ft | 20 kts | 250° |
| 2026-05-06 19:33 | 50.03433 | 8.53373 | 335 ft | 20 kts | 249° |
| 2026-05-06 19:33 | 50.03386 | 8.53179 | 333 ft | 19 kts | 250° |
| 2026-05-06 19:34 | 50.03340 | 8.52983 | 334 ft | 20 kts | 250° |
| 2026-05-06 19:34 | 50.03291 | 8.52777 | 332 ft | 20 kts | 250° |
| 2026-05-06 19:34 | 50.03269 | 8.52613 | 336 ft | 7 kts | 269° |
| 2026-05-06 19:34 | 50.03256 | 8.52599 | 333 ft | 0 kts | 179° |
| 2026-05-06 19:36 | 50.03244 | 8.52599 | 336 ft | 13 kts | 179° |
| 2026-05-06 19:36 | 50.02851 | 8.52599 | 336 ft | 95 kts | 180° |
| 2026-05-06 19:36 | 50.01968 | 8.52600 | 335 ft | 155 kts | 180° |
| 2026-05-06 19:37 | 50.00850 | 8.52593 | 898 ft | 159 kts | 182° |
| 2026-05-06 19:37 | 49.99743 | 8.52592 | 1672 ft | 160 kts | 183° |
| 2026-05-06 19:37 | 49.98599 | 8.52599 | 2227 ft | 169 kts | 183° |
| 2026-05-06 19:37 | 49.97803 | 8.52660 | 2561 ft | 179 kts | 174° |
| 2026-05-06 19:38 | 49.96190 | 8.53700 | 3254 ft | 199 kts | 144° |
| 2026-05-06 19:38 | 49.95209 | 8.55351 | 3705 ft | 222 kts | 123° |
| 2026-05-06 19:38 | 49.94473 | 8.57679 | 3899 ft | 255 kts | 110° |
| 2026-05-06 19:38 | 49.94085 | 8.60299 | 4065 ft | 249 kts | 96° |
| 2026-05-06 19:39 | 49.94031 | 8.63086 | 4637 ft | 269 kts | 92° |
| 2026-05-06 19:39 | 49.93922 | 8.66048 | 5203 ft | 279 kts | 99° |
| 2026-05-06 19:39 | 49.93401 | 8.68953 | 5716 ft | 280 kts | 118° |
| 2026-05-06 19:39 | 49.92270 | 8.71379 | 6368 ft | 278 kts | 140° |
| 2026-05-06 19:40 | 49.90704 | 8.73107 | 7074 ft | 278 kts | 152° |
| 2026-05-06 19:40 | 49.89087 | 8.74833 | 7162 ft | 283 kts | 141° |
| 2026-05-06 19:40 | 49.87808 | 8.77168 | 7224 ft | 289 kts | 123° |
| 2026-05-06 19:40 | 49.86852 | 8.79925 | 8141 ft | 291 kts | 121° |
| 2026-05-06 19:41 | 49.85876 | 8.82687 | 9117 ft | 294 kts | 121° |
| 2026-05-06 19:41 | 49.84866 | 8.85471 | 9986 ft | 299 kts | 121° |
| 2026-05-06 19:41 | 49.83796 | 8.88384 | 10348 ft | 323 kts | 121° |
| 2026-05-06 19:41 | 49.82662 | 8.91468 | 10959 ft | 334 kts | 121° |
| 2026-05-06 19:42 | 49.81510 | 8.94619 | 11773 ft | 338 kts | 121° |
| 2026-05-06 19:42 | 49.80348 | 8.97803 | 12642 ft | 341 kts | 121° |
| 2026-05-06 19:42 | 49.79178 | 9.01009 | 13505 ft | 344 kts | 121° |
| 2026-05-06 19:42 | 49.77997 | 9.04242 | 14264 ft | 347 kts | 120° |
| 2026-05-06 19:43 | 49.76817 | 9.07506 | 14983 ft | 350 kts | 118° |
| 2026-05-06 19:43 | 49.75911 | 9.11021 | 15697 ft | 355 kts | 107° |
| 2026-05-06 19:43 | 49.75304 | 9.14751 | 16413 ft | 358 kts | 107° |
| 2026-05-06 19:43 | 49.74403 | 9.18345 | 17122 ft | 360 kts | 119° |
| 2026-05-06 19:44 | 49.73059 | 9.21601 | 17837 ft | 361 kts | 130° |
| 2026-05-06 19:44 | 49.71409 | 9.24544 | 18492 ft | 363 kts | 133° |
| 2026-05-06 19:44 | 49.69737 | 9.27484 | 19120 ft | 366 kts | 133° |
| 2026-05-06 19:44 | 49.68055 | 9.30454 | 19750 ft | 369 kts | 133° |
| 2026-05-06 19:45 | 49.66360 | 9.33444 | 20373 ft | 371 kts | 133° |
| 2026-05-06 19:45 | 49.64655 | 9.36451 | 20996 ft | 374 kts | 133° |
| 2026-05-06 19:45 | 49.62975 | 9.39531 | 21598 ft | 378 kts | 128° |
| 2026-05-06 19:45 | 49.61614 | 9.43021 | 22207 ft | 383 kts | 117° |
| 2026-05-06 19:46 | 49.60662 | 9.46876 | 22823 ft | 387 kts | 110° |
| 2026-05-06 19:46 | 49.59822 | 9.50832 | 23428 ft | 390 kts | 110° |
| 2026-05-06 19:46 | 49.58970 | 9.54820 | 23933 ft | 392 kts | 111° |
| 2026-05-06 19:46 | 49.58108 | 9.58815 | 24443 ft | 394 kts | 111° |
| 2026-05-06 19:47 | 49.57238 | 9.62834 | 24946 ft | 396 kts | 111° |
| 2026-05-06 19:47 | 49.56366 | 9.66864 | 25462 ft | 397 kts | 111° |
| 2026-05-06 19:47 | 49.55491 | 9.70905 | 25963 ft | 398 kts | 111° |
| 2026-05-06 19:47 | 49.54612 | 9.74962 | 26439 ft | 400 kts | 111° |
| 2026-05-06 19:48 | 49.53728 | 9.79029 | 26895 ft | 402 kts | 112° |
| 2026-05-06 19:48 | 49.52617 | 9.82978 | 27323 ft | 401 kts | 122° |
| 2026-05-06 19:48 | 49.51099 | 9.86564 | 27757 ft | 400 kts | 131° |
| 2026-05-06 19:48 | 49.49344 | 9.89894 | 28148 ft | 401 kts | 133° |
| 2026-05-06 19:49 | 49.47580 | 9.93232 | 28565 ft | 404 kts | 133° |
| 2026-05-06 19:49 | 49.45827 | 9.96548 | 28804 ft | 406 kts | 133° |
| 2026-05-06 19:49 | 49.42174 | 10.03446 | 28839 ft | 426 kts | 133° |
| 2026-05-06 19:50 | 49.38329 | 10.10691 | 28838 ft | 440 kts | 133° |
| 2026-05-06 19:50 | 49.34450 | 10.18001 | 28837 ft | 442 kts | 133° |
| 2026-05-06 19:51 | 49.30560 | 10.25323 | 28845 ft | 443 kts | 133° |
| 2026-05-06 19:51 | 49.26685 | 10.32581 | 28852 ft | 445 kts | 133° |
| 2026-05-06 19:52 | 49.22653 | 10.39745 | 28854 ft | 442 kts | 139° |
| 2026-05-06 19:52 | 49.18241 | 10.46311 | 28867 ft | 442 kts | 139° |
| 2026-05-06 19:53 | 49.13824 | 10.52863 | 28877 ft | 442 kts | 140° |
| 2026-05-06 19:53 | 49.09418 | 10.59396 | 28878 ft | 442 kts | 139° |
| 2026-05-06 19:54 | 49.05003 | 10.65927 | 28867 ft | 443 kts | 139° |
| 2026-05-06 19:54 | 49.00560 | 10.72460 | 28873 ft | 445 kts | 140° |
| 2026-05-06 19:55 | 48.96101 | 10.78996 | 28859 ft | 446 kts | 140° |
| 2026-05-06 19:55 | 48.91633 | 10.85542 | 28862 ft | 446 kts | 140° |
| 2026-05-06 19:56 | 48.87166 | 10.92089 | 28848 ft | 447 kts | 140° |
| 2026-05-06 19:56 | 48.83444 | 10.97535 | 28849 ft | 447 kts | 140° |
| 2026-05-06 19:57 | 48.78953 | 11.04070 | 28852 ft | 448 kts | 140° |
| 2026-05-06 19:57 | 48.74453 | 11.10597 | 28849 ft | 449 kts | 141° |
| 2026-05-06 19:58 | 48.69931 | 11.17145 | 28841 ft | 450 kts | 141° |
| 2026-05-06 19:58 | 48.67664 | 11.20413 | 28702 ft | 450 kts | 141° |
| 2026-05-06 19:58 | 48.65431 | 11.23633 | 28425 ft | 434 kts | 140° |
| 2026-05-06 19:59 | 48.63459 | 11.26998 | 28285 ft | 422 kts | 131° |
| 2026-05-06 19:59 | 48.61737 | 11.30489 | 28114 ft | 407 kts | 131° |
| 2026-05-06 19:59 | 48.60057 | 11.33888 | 27649 ft | 400 kts | 131° |
| 2026-05-06 19:59 | 48.58393 | 11.37228 | 27112 ft | 396 kts | 131° |
| 2026-05-06 20:00 | 48.56743 | 11.40527 | 26587 ft | 392 kts | 131° |
| 2026-05-06 20:00 | 48.55109 | 11.43797 | 26077 ft | 389 kts | 130° |
| 2026-05-06 20:00 | 48.53487 | 11.47044 | 25577 ft | 385 kts | 130° |
| 2026-05-06 20:00 | 48.51879 | 11.50258 | 25098 ft | 382 kts | 130° |
| 2026-05-06 20:01 | 48.50282 | 11.53442 | 24657 ft | 379 kts | 130° |
| 2026-05-06 20:01 | 48.48694 | 11.56604 | 24143 ft | 378 kts | 130° |
| 2026-05-06 20:01 | 48.47162 | 11.59802 | 23667 ft | 377 kts | 124° |
| 2026-05-06 20:01 | 48.46029 | 11.63365 | 23180 ft | 378 kts | 113° |
| 2026-05-06 20:02 | 48.45144 | 11.67080 | 22656 ft | 375 kts | 113° |
| 2026-05-06 20:02 | 48.44259 | 11.70764 | 22154 ft | 372 kts | 113° |
| 2026-05-06 20:02 | 48.43378 | 11.74416 | 21612 ft | 370 kts | 114° |
| 2026-05-06 20:02 | 48.42496 | 11.78054 | 21121 ft | 368 kts | 114° |
| 2026-05-06 20:03 | 48.41622 | 11.81658 | 20651 ft | 365 kts | 114° |
| 2026-05-06 20:03 | 48.40755 | 11.85241 | 20188 ft | 363 kts | 114° |
| 2026-05-06 20:03 | 48.39894 | 11.88790 | 19734 ft | 360 kts | 114° |
| 2026-05-06 20:03 | 48.39035 | 11.92323 | 19280 ft | 358 kts | 114° |
| 2026-05-06 20:04 | 48.38183 | 11.95821 | 18850 ft | 355 kts | 114° |
| 2026-05-06 20:04 | 48.37335 | 11.99295 | 18419 ft | 352 kts | 114° |
| 2026-05-06 20:04 | 48.36502 | 12.02717 | 17690 ft | 346 kts | 114° |
| 2026-05-06 20:04 | 48.35696 | 12.06045 | 17254 ft | 331 kts | 114° |
| 2026-05-06 20:05 | 48.34924 | 12.09226 | 16863 ft | 317 kts | 115° |
| 2026-05-06 20:05 | 48.34180 | 12.12278 | 16466 ft | 305 kts | 115° |
| 2026-05-06 20:05 | 48.33456 | 12.15223 | 16126 ft | 298 kts | 115° |
| 2026-05-06 20:05 | 48.32733 | 12.18140 | 15770 ft | 298 kts | 115° |
| 2026-05-06 20:06 | 48.32010 | 12.21053 | 15409 ft | 297 kts | 115° |
| 2026-05-06 20:06 | 48.31291 | 12.23950 | 15061 ft | 296 kts | 115° |
| 2026-05-06 20:06 | 48.30576 | 12.26842 | 14714 ft | 295 kts | 115° |
| 2026-05-06 20:06 | 48.29865 | 12.29726 | 14358 ft | 294 kts | 115° |
| 2026-05-06 20:07 | 48.29153 | 12.32607 | 14008 ft | 296 kts | 115° |
| 2026-05-06 20:07 | 48.28432 | 12.35510 | 13649 ft | 297 kts | 115° |
| 2026-05-06 20:07 | 48.27708 | 12.38415 | 13258 ft | 298 kts | 115° |
| 2026-05-06 20:07 | 48.26981 | 12.41333 | 12894 ft | 298 kts | 115° |
| 2026-05-06 20:08 | 48.26258 | 12.44246 | 12525 ft | 297 kts | 115° |
| 2026-05-06 20:08 | 48.25535 | 12.47150 | 12158 ft | 298 kts | 115° |
| 2026-05-06 20:08 | 48.24809 | 12.50057 | 11786 ft | 298 kts | 115° |
| 2026-05-06 20:08 | 48.24084 | 12.52963 | 11407 ft | 298 kts | 115° |
| 2026-05-06 20:09 | 48.23359 | 12.55875 | 11032 ft | 298 kts | 115° |
| 2026-05-06 20:09 | 48.22633 | 12.58781 | 10656 ft | 297 kts | 115° |
| 2026-05-06 20:09 | 48.21909 | 12.61677 | 10258 ft | 297 kts | 115° |
| 2026-05-06 20:09 | 48.21190 | 12.64545 | 9887 ft | 298 kts | 115° |
| 2026-05-06 20:10 | 48.20460 | 12.67447 | 9524 ft | 295 kts | 115° |
| 2026-05-06 20:10 | 48.19737 | 12.70319 | 9132 ft | 294 kts | 115° |
| 2026-05-06 20:10 | 48.19018 | 12.73177 | 8732 ft | 293 kts | 115° |
| 2026-05-06 20:10 | 48.18299 | 12.76029 | 8317 ft | 292 kts | 114° |
| 2026-05-06 20:11 | 48.17569 | 12.78875 | 7895 ft | 291 kts | 117° |
| 2026-05-06 20:11 | 48.16516 | 12.81408 | 7477 ft | 285 kts | 135° |
| 2026-05-06 20:11 | 48.15051 | 12.83333 | 7059 ft | 278 kts | 153° |
| 2026-05-06 20:11 | 48.13324 | 12.84535 | 6652 ft | 270 kts | 169° |
| 2026-05-06 20:12 | 48.11507 | 12.85201 | 6238 ft | 269 kts | 173° |
| 2026-05-06 20:12 | 48.09691 | 12.85852 | 5816 ft | 268 kts | 173° |
| 2026-05-06 20:12 | 48.07898 | 12.86503 | 5619 ft | 259 kts | 173° |
| 2026-05-06 20:12 | 48.06201 | 12.87127 | 5537 ft | 244 kts | 173° |
| 2026-05-06 20:13 | 48.04596 | 12.87719 | 5448 ft | 231 kts | 173° |
| 2026-05-06 20:13 | 48.03074 | 12.88278 | 5351 ft | 220 kts | 174° |
| 2026-05-06 20:13 | 48.01618 | 12.88810 | 5245 ft | 210 kts | 174° |
| 2026-05-06 20:13 | 48.00216 | 12.89269 | 5148 ft | 202 kts | 182° |
| 2026-05-06 20:14 | 47.98830 | 12.89333 | 5082 ft | 199 kts | 188° |
| 2026-05-06 20:14 | 47.97446 | 12.89365 | 4988 ft | 199 kts | 187° |
| 2026-05-06 20:14 | 47.96060 | 12.89771 | 4816 ft | 210 kts | 166° |
| 2026-05-06 20:14 | 47.94720 | 12.90622 | 4601 ft | 207 kts | 164° |
| 2026-05-06 20:15 | 47.93404 | 12.91468 | 4296 ft | 205 kts | 165° |
| 2026-05-06 20:15 | 47.92100 | 12.92299 | 3995 ft | 202 kts | 166° |
| 2026-05-06 20:15 | 47.90828 | 12.93110 | 3724 ft | 194 kts | 166° |
| 2026-05-06 20:15 | 47.89620 | 12.93881 | 3468 ft | 183 kts | 166° |
| 2026-05-06 20:16 | 47.88497 | 12.94597 | 3259 ft | 167 kts | 167° |
| 2026-05-06 20:16 | 47.87465 | 12.95252 | 3024 ft | 157 kts | 167° |
| 2026-05-06 20:16 | 47.86479 | 12.95875 | 2820 ft | 152 kts | 166° |
| 2026-05-06 20:16 | 47.85512 | 12.96487 | 2605 ft | 150 kts | 165° |
| 2026-05-06 20:17 | 47.84556 | 12.97089 | 2395 ft | 149 kts | 166° |
| 2026-05-06 20:17 | 47.83613 | 12.97686 | 2185 ft | 146 kts | 165° |
| 2026-05-06 20:17 | 47.82679 | 12.98263 | 1983 ft | 145 kts | 158° |
| 2026-05-06 20:17 | 47.81768 | 12.98847 | 1784 ft | 141 kts | 157° |
| 2026-05-06 20:18 | 47.80866 | 12.99420 | 1578 ft | 142 kts | 157° |
| 2026-05-06 20:18 | 47.79966 | 12.99988 | 1423 ft | 134 kts | 158° |
| 2026-05-06 20:18 | 47.79245 | 13.00441 | 1421 ft | 88 kts | 157° |
| 2026-05-06 20:18 | 47.78825 | 13.00706 | 1420 ft | 48 kts | 156° |
| 2026-05-06 20:19 | 47.78594 | 13.00839 | 1421 ft | 20 kts | 181° |
| 2026-05-06 20:19 | 47.78530 | 13.00702 | 1420 ft | 17 kts | 264° |
| 2026-05-06 20:19 | 47.78611 | 13.00583 | 1420 ft | 18 kts | 336° |
| 2026-05-06 20:19 | 47.78735 | 13.00504 | 1420 ft | 20 kts | 337° |
| 2026-05-06 20:20 | 47.78869 | 13.00420 | 1420 ft | 21 kts | 337° |
| 2026-05-06 20:20 | 47.78954 | 13.00305 | 1422 ft | 15 kts | 273° |
| 2026-05-06 20:20 | 47.78974 | 13.00150 | 1422 ft | 16 kts | 314° |
| 2026-05-06 20:20 | 47.79073 | 13.00082 | 1422 ft | 16 kts | 337° |
| 2026-05-06 20:21 | 47.79172 | 13.00019 | 1422 ft | 15 kts | 336° |
| 2026-05-06 20:21 | 47.79223 | 12.99985 | 1422 ft | 5 kts | 333° |
| 2026-05-06 20:21 | 47.79238 | 12.99948 | 1422 ft | 4 kts | 293° |
| 2026-05-06 20:21 | 47.79249 | 12.99891 | 1422 ft | 7 kts | 282° |
| 2026-05-06 20:22 | 47.79258 | 12.99823 | 1422 ft | 6 kts | 282° |
| 2026-05-06 20:22 | 47.79259 | 12.99819 | 1422 ft | 0 kts | 282° |